sensor_id;sensor_type;location;lat;lon;timestamp;pressure;altitude;pressure_sealevel;temperature;humidity
46347;BME280;32057;47.830;19.046;2023-03-24T00:02:16;99997.41;;;6.28;100.00
46347;BME280;32057;47.830;19.046;2023-03-24T00:04:41;99993.56;;;6.16;100.00
46347;BME280;32057;47.830;19.046;2023-03-24T00:07:09;99995.16;;;6.11;100.00
46347;BME280;32057;47.830;19.046;2023-03-24T00:09:39;99988.31;;;6.13;100.00
46347;BME280;32057;47.830;19.046;2023-03-24T00:12:05;99995.75;;;6.04;100.00
46347;BME280;32057;47.830;19.046;2023-03-24T00:14:31;99989.66;;;6.02;100.00
46347;BME280;32057;47.830;19.046;2023-03-24T00:16:56;99988.59;;;5.95;100.00
46347;BME280;32057;47.830;19.046;2023-03-24T00:19:24;99990.44;;;6.00;100.00
46347;BME280;32057;47.830;19.046;2023-03-24T00:21:49;99991.44;;;6.03;100.00
46347;BME280;32057;47.830;19.046;2023-03-24T00:24:15;99996.88;;;6.12;100.00
46347;BME280;32057;47.830;19.046;2023-03-24T00:26:40;99989.28;;;6.17;100.00
46347;BME280;32057;47.830;19.046;2023-03-24T00:29:08;99991.25;;;6.24;100.00
46347;BME280;32057;47.830;19.046;2023-03-24T00:31:35;99990.03;;;5.89;100.00
46347;BME280;32057;47.830;19.046;2023-03-24T00:34:05;99981.34;;;5.85;100.00
46347;BME280;32057;47.830;19.046;2023-03-24T00:36:32;99986.31;;;5.81;100.00
46347;BME280;32057;47.830;19.046;2023-03-24T00:38:57;99983.44;;;5.71;100.00
46347;BME280;32057;47.830;19.046;2023-03-24T00:41:23;99974.59;;;5.65;100.00
46347;BME280;32057;47.830;19.046;2023-03-24T00:43:56;99972.59;;;5.56;100.00
46347;BME280;32057;47.830;19.046;2023-03-24T00:46:22;99965.56;;;5.52;100.00
46347;BME280;32057;47.830;19.046;2023-03-24T00:49:01;99968.75;;;5.45;100.00
46347;BME280;32057;47.830;19.046;2023-03-24T00:51:36;99951.41;;;5.41;100.00
46347;BME280;32057;47.830;19.046;2023-03-24T00:54:02;99952.06;;;5.35;100.00
46347;BME280;32057;47.830;19.046;2023-03-24T00:56:30;99944.28;;;5.33;100.00
46347;BME280;32057;47.830;19.046;2023-03-24T00:58:56;99951.53;;;5.44;100.00
46347;BME280;32057;47.830;19.046;2023-03-24T01:01:26;99951.88;;;5.54;100.00
46347;BME280;32057;47.830;19.046;2023-03-24T01:03:54;99943.63;;;5.65;100.00
46347;BME280;32057;47.830;19.046;2023-03-24T01:06:22;99947.50;;;5.77;100.00
46347;BME280;32057;47.830;19.046;2023-03-24T01:08:49;99936.53;;;5.59;100.00
46347;BME280;32057;47.830;19.046;2023-03-24T01:11:22;99925.06;;;5.49;100.00
46347;BME280;32057;47.830;19.046;2023-03-24T01:13:50;99931.28;;;5.56;100.00
46347;BME280;32057;47.830;19.046;2023-03-24T01:16:16;99924.75;;;5.66;100.00
46347;BME280;32057;47.830;19.046;2023-03-24T01:18:41;99926.75;;;5.74;100.00
46347;BME280;32057;47.830;19.046;2023-03-24T01:21:08;99926.84;;;5.77;100.00
46347;BME280;32057;47.830;19.046;2023-03-24T01:23:36;99930.22;;;5.49;100.00
46347;BME280;32057;47.830;19.046;2023-03-24T01:26:05;99940.31;;;5.19;100.00
46347;BME280;32057;47.830;19.046;2023-03-24T01:28:32;99924.31;;;5.28;100.00
46347;BME280;32057;47.830;19.046;2023-03-24T01:30:57;99934.72;;;5.31;100.00
46347;BME280;32057;47.830;19.046;2023-03-24T01:33:23;99932.97;;;5.30;100.00
46347;BME280;32057;47.830;19.046;2023-03-24T01:35:48;99929.53;;;5.29;100.00
46347;BME280;32057;47.830;19.046;2023-03-24T01:38:14;99933.84;;;5.30;100.00
46347;BME280;32057;47.830;19.046;2023-03-24T01:40:43;99922.81;;;5.34;100.00
46347;BME280;32057;47.830;19.046;2023-03-24T01:43:27;99919.38;;;5.34;100.00
46347;BME280;32057;47.830;19.046;2023-03-24T01:51:27;99911.88;;;5.42;100.00
46347;BME280;32057;47.830;19.046;2023-03-24T01:53:58;99913.53;;;5.39;100.00
46347;BME280;32057;47.830;19.046;2023-03-24T01:56:27;99918.28;;;5.27;100.00
46347;BME280;32057;47.830;19.046;2023-03-24T01:58:58;99920.22;;;5.34;100.00
46347;BME280;32057;47.830;19.046;2023-03-24T02:01:26;99924.72;;;5.40;100.00
46347;BME280;32057;47.830;19.046;2023-03-24T02:03:55;99917.06;;;5.42;100.00
46347;BME280;32057;47.830;19.046;2023-03-24T02:06:21;99919.66;;;5.43;100.00
46347;BME280;32057;47.830;19.046;2023-03-24T02:11:14;99904.00;;;5.13;100.00
46347;BME280;32057;47.830;19.046;2023-03-24T02:13:40;99903.06;;;5.11;100.00
46347;BME280;32057;47.830;19.046;2023-03-24T02:30:31;99896.38;;;5.16;100.00
46347;BME280;32057;47.830;19.046;2023-03-24T02:41:46;99897.84;;;5.33;100.00
46347;BME280;32057;47.830;19.046;2023-03-24T02:50:28;99896.25;;;5.13;100.00
46347;BME280;32057;47.830;19.046;2023-03-24T02:53:05;99891.72;;;5.06;100.00
46347;BME280;32057;47.830;19.046;2023-03-24T02:58:39;99879.00;;;5.10;100.00
46347;BME280;32057;47.830;19.046;2023-03-24T03:01:09;99878.13;;;5.10;100.00
46347;BME280;32057;47.830;19.046;2023-03-24T03:03:49;99880.63;;;5.08;100.00
46347;BME280;32057;47.830;19.046;2023-03-24T03:06:27;99876.47;;;5.12;100.00
46347;BME280;32057;47.830;19.046;2023-03-24T03:08:56;99867.16;;;5.15;100.00
46347;BME280;32057;47.830;19.046;2023-03-24T03:11:23;99859.44;;;5.17;100.00
46347;BME280;32057;47.830;19.046;2023-03-24T03:13:56;99865.63;;;5.22;100.00
46347;BME280;32057;47.830;19.046;2023-03-24T03:19:16;99871.84;;;5.27;100.00
46347;BME280;32057;47.830;19.046;2023-03-24T03:21:44;99871.84;;;5.27;100.00
46347;BME280;32057;47.830;19.046;2023-03-24T03:24:21;99864.50;;;5.14;100.00
46347;BME280;32057;47.830;19.046;2023-03-24T03:27:15;99860.28;;;5.16;100.00
46347;BME280;32057;47.830;19.046;2023-03-24T03:29:50;99860.88;;;5.09;100.00
46347;BME280;32057;47.830;19.046;2023-03-24T03:32:22;99858.34;;;5.10;100.00
46347;BME280;32057;47.830;19.046;2023-03-24T03:35:06;99856.66;;;5.11;100.00
46347;BME280;32057;47.830;19.046;2023-03-24T03:40:28;99856.75;;;5.14;100.00
46347;BME280;32057;47.830;19.046;2023-03-24T03:42:55;99857.69;;;5.16;100.00
46347;BME280;32057;47.830;19.046;2023-03-24T03:45:21;99861.09;;;5.15;100.00
46347;BME280;32057;47.830;19.046;2023-03-24T03:47:47;99857.56;;;5.13;100.00
46347;BME280;32057;47.830;19.046;2023-03-24T03:50:13;99860.13;;;5.11;100.00
46347;BME280;32057;47.830;19.046;2023-03-24T03:52:39;99861.00;;;5.12;100.00
46347;BME280;32057;47.830;19.046;2023-03-24T03:55:06;99854.78;;;5.07;100.00
46347;BME280;32057;47.830;19.046;2023-03-24T03:57:34;99853.56;;;4.95;100.00
46347;BME280;32057;47.830;19.046;2023-03-24T04:00:00;99856.94;;;4.94;100.00
46347;BME280;32057;47.830;19.046;2023-03-24T04:02:53;99852.13;;;5.04;100.00
46347;BME280;32057;47.830;19.046;2023-03-24T04:05:34;99856.63;;;5.09;100.00
46347;BME280;32057;47.830;19.046;2023-03-24T04:14:00;99858.94;;;5.02;100.00
46347;BME280;32057;47.830;19.046;2023-03-24T04:26:57;99863.59;;;4.88;100.00
46347;BME280;32057;47.830;19.046;2023-03-24T04:29:52;99872.78;;;4.81;100.00
46347;BME280;32057;47.830;19.046;2023-03-24T04:32:34;99872.84;;;4.83;100.00
46347;BME280;32057;47.830;19.046;2023-03-24T04:35:15;99865.28;;;4.87;100.00
46347;BME280;32057;47.830;19.046;2023-03-24T04:37:51;99871.53;;;4.94;100.00
46347;BME280;32057;47.830;19.046;2023-03-24T04:40:17;99871.97;;;4.82;100.00
46347;BME280;32057;47.830;19.046;2023-03-24T04:42:50;99884.69;;;4.53;100.00
46347;BME280;32057;47.830;19.046;2023-03-24T04:45:17;99870.25;;;4.58;100.00
46347;BME280;32057;47.830;19.046;2023-03-24T04:47:53;99873.41;;;4.74;100.00
46347;BME280;32057;47.830;19.046;2023-03-24T04:50:34;99869.50;;;4.85;100.00
46347;BME280;32057;47.830;19.046;2023-03-24T04:53:01;99867.38;;;4.73;100.00
46347;BME280;32057;47.830;19.046;2023-03-24T04:58:03;99863.97;;;4.74;100.00
46347;BME280;32057;47.830;19.046;2023-03-24T05:00:29;99862.53;;;4.83;100.00
46347;BME280;32057;47.830;19.046;2023-03-24T05:02:56;99856.94;;;4.94;100.00
46347;BME280;32057;47.830;19.046;2023-03-24T05:05:21;99865.09;;;5.07;100.00
46347;BME280;32057;47.830;19.046;2023-03-24T05:07:47;99859.34;;;5.14;100.00
46347;BME280;32057;47.830;19.046;2023-03-24T05:10:13;99867.81;;;5.10;100.00
46347;BME280;32057;47.830;19.046;2023-03-24T05:12:39;99862.72;;;5.13;100.00
46347;BME280;32057;47.830;19.046;2023-03-24T05:15:05;99868.94;;;5.18;100.00
46347;BME280;32057;47.830;19.046;2023-03-24T05:17:31;99873.00;;;5.37;100.00
46347;BME280;32057;47.830;19.046;2023-03-24T05:19:56;99882.78;;;5.46;100.00
46347;BME280;32057;47.830;19.046;2023-03-24T05:22:22;99876.97;;;5.53;100.00
46347;BME280;32057;47.830;19.046;2023-03-24T05:24:47;99876.16;;;5.54;100.00
46347;BME280;32057;47.830;19.046;2023-03-24T05:27:12;99879.75;;;5.59;100.00
46347;BME280;32057;47.830;19.046;2023-03-24T05:29:38;99881.66;;;5.63;100.00
46347;BME280;32057;47.830;19.046;2023-03-24T05:32:03;99886.69;;;5.60;100.00
46347;BME280;32057;47.830;19.046;2023-03-24T05:34:29;99879.28;;;5.71;100.00
46347;BME280;32057;47.830;19.046;2023-03-24T05:36:54;99888.22;;;5.81;100.00
46347;BME280;32057;47.830;19.046;2023-03-24T05:39:20;99895.47;;;5.92;100.00
46347;BME280;32057;47.830;19.046;2023-03-24T05:41:45;99888.13;;;6.03;100.00
46347;BME280;32057;47.830;19.046;2023-03-24T05:44:11;99884.16;;;6.14;100.00
46347;BME280;32057;47.830;19.046;2023-03-24T05:46:36;99883.78;;;6.31;100.00
46347;BME280;32057;47.830;19.046;2023-03-24T05:49:02;99880.56;;;6.38;100.00
46347;BME280;32057;47.830;19.046;2023-03-24T05:51:28;99882.59;;;6.48;100.00
46347;BME280;32057;47.830;19.046;2023-03-24T05:53:53;99891.53;;;6.60;100.00
46347;BME280;32057;47.830;19.046;2023-03-24T05:56:19;99886.59;;;6.67;100.00
46347;BME280;32057;47.830;19.046;2023-03-24T05:58:44;99891.19;;;6.77;100.00
46347;BME280;32057;47.830;19.046;2023-03-24T06:01:10;99896.53;;;6.84;100.00
46347;BME280;32057;47.830;19.046;2023-03-24T06:03:36;99897.75;;;6.96;100.00
46347;BME280;32057;47.830;19.046;2023-03-24T06:06:05;99895.59;;;7.12;100.00
46347;BME280;32057;47.830;19.046;2023-03-24T06:08:31;99889.81;;;7.22;100.00
46347;BME280;32057;47.830;19.046;2023-03-24T06:11:02;99893.59;;;7.33;100.00
46347;BME280;32057;47.830;19.046;2023-03-24T06:13:31;99894.75;;;7.46;100.00
46347;BME280;32057;47.830;19.046;2023-03-24T06:15:58;99894.34;;;7.64;100.00
46347;BME280;32057;47.830;19.046;2023-03-24T06:18:25;99893.78;;;7.76;100.00
46347;BME280;32057;47.830;19.046;2023-03-24T06:20:55;99889.72;;;7.86;100.00
46347;BME280;32057;47.830;19.046;2023-03-24T06:23:25;99896.00;;;7.95;100.00
46347;BME280;32057;47.830;19.046;2023-03-24T06:25:56;99891.00;;;8.05;100.00
46347;BME280;32057;47.830;19.046;2023-03-24T06:28:28;99892.09;;;8.14;100.00
46347;BME280;32057;47.830;19.046;2023-03-24T06:30:55;99900.19;;;8.27;100.00
46347;BME280;32057;47.830;19.046;2023-03-24T06:33:23;99903.88;;;8.38;100.00
46347;BME280;32057;47.830;19.046;2023-03-24T06:35:51;99906.75;;;8.50;100.00
46347;BME280;32057;47.830;19.046;2023-03-24T06:38:17;99905.28;;;8.62;100.00
46347;BME280;32057;47.830;19.046;2023-03-24T06:40:42;99906.41;;;8.73;100.00
46347;BME280;32057;47.830;19.046;2023-03-24T06:43:07;99899.84;;;8.92;100.00
46347;BME280;32057;47.830;19.046;2023-03-24T06:45:33;99897.66;;;9.12;100.00
46347;BME280;32057;47.830;19.046;2023-03-24T06:47:59;99892.16;;;9.42;100.00
46347;BME280;32057;47.830;19.046;2023-03-24T06:50:24;99891.94;;;9.79;100.00
46347;BME280;32057;47.830;19.046;2023-03-24T06:52:58;99883.72;;;10.10;100.00
46347;BME280;32057;47.830;19.046;2023-03-24T06:55:24;99882.47;;;10.40;100.00
46347;BME280;32057;47.830;19.046;2023-03-24T06:57:49;99872.41;;;10.65;100.00
46347;BME280;32057;47.830;19.046;2023-03-24T07:00:15;99877.75;;;10.77;100.00
46347;BME280;32057;47.830;19.046;2023-03-24T07:02:40;99872.81;;;11.02;100.00
46347;BME280;32057;47.830;19.046;2023-03-24T07:05:07;99868.75;;;11.27;99.76
46347;BME280;32057;47.830;19.046;2023-03-24T07:07:34;99866.44;;;11.59;97.07
46347;BME280;32057;47.830;19.046;2023-03-24T07:10:00;99863.19;;;11.85;93.00
46347;BME280;32057;47.830;19.046;2023-03-24T07:12:26;99866.84;;;12.05;88.40
46347;BME280;32057;47.830;19.046;2023-03-24T07:14:51;99860.88;;;12.25;89.63
46347;BME280;32057;47.830;19.046;2023-03-24T07:17:17;99861.00;;;12.48;86.55
46347;BME280;32057;47.830;19.046;2023-03-24T07:19:42;99867.16;;;12.59;84.70
46347;BME280;32057;47.830;19.046;2023-03-24T07:22:10;99867.19;;;12.70;84.24
46347;BME280;32057;47.830;19.046;2023-03-24T07:24:35;99860.28;;;12.78;81.03
46347;BME280;32057;47.830;19.046;2023-03-24T07:27:01;99852.44;;;12.86;77.22
46347;BME280;32057;47.830;19.046;2023-03-24T07:29:27;99848.13;;;12.92;75.13
46347;BME280;32057;47.830;19.046;2023-03-24T07:31:52;99842.94;;;12.99;75.28
46347;BME280;32057;47.830;19.046;2023-03-24T07:34:19;99837.75;;;13.23;74.15
46347;BME280;32057;47.830;19.046;2023-03-24T07:36:44;99837.81;;;13.32;74.51
46347;BME280;32057;47.830;19.046;2023-03-24T07:39:10;99837.81;;;13.39;74.74
46347;BME280;32057;47.830;19.046;2023-03-24T07:41:37;99844.75;;;13.46;74.45
46347;BME280;32057;47.830;19.046;2023-03-24T07:44:03;99842.16;;;13.50;72.03
46347;BME280;32057;47.830;19.046;2023-03-24T07:46:29;99842.16;;;13.57;72.97
46347;BME280;32057;47.830;19.046;2023-03-24T07:48:54;99846.53;;;13.62;72.80
46347;BME280;32057;47.830;19.046;2023-03-24T07:51:20;99840.44;;;13.54;72.46
46347;BME280;32057;47.830;19.046;2023-03-24T07:53:45;99844.78;;;13.58;71.79
46347;BME280;32057;47.830;19.046;2023-03-24T07:56:12;99827.34;;;13.68;70.27
46347;BME280;32057;47.830;19.046;2023-03-24T07:58:38;99827.34;;;13.75;71.44
46347;BME280;32057;47.830;19.046;2023-03-24T08:01:06;99813.41;;;13.83;72.44
46347;BME280;32057;47.830;19.046;2023-03-24T08:03:31;99809.91;;;13.87;71.54
46347;BME280;32057;47.830;19.046;2023-03-24T08:05:57;99790.72;;;13.94;71.36
46347;BME280;32057;47.830;19.046;2023-03-24T08:08:24;99784.59;;;13.95;70.94
46347;BME280;32057;47.830;19.046;2023-03-24T08:10:49;99782.84;;;13.97;70.01
46347;BME280;32057;47.830;19.046;2023-03-24T08:13:15;99784.59;;;13.93;71.13
46347;BME280;32057;47.830;19.046;2023-03-24T08:15:42;99785.44;;;14.03;74.04
46347;BME280;32057;47.830;19.046;2023-03-24T08:18:07;99777.59;;;14.12;71.73
46347;BME280;32057;47.830;19.046;2023-03-24T08:20:33;99781.94;;;14.07;72.41
46347;BME280;32057;47.830;19.046;2023-03-24T08:22:58;99780.22;;;14.14;71.77
46347;BME280;32057;47.830;19.046;2023-03-24T08:25:25;99779.31;;;14.17;70.56
46347;BME280;32057;47.830;19.046;2023-03-24T08:27:52;99767.09;;;14.17;72.98
46347;BME280;32057;47.830;19.046;2023-03-24T08:30:20;99767.97;;;14.21;74.53
46347;BME280;32057;47.830;19.046;2023-03-24T08:32:51;99771.44;;;14.26;70.49
46347;BME280;32057;47.830;19.046;2023-03-24T08:35:22;99767.94;;;14.27;69.53
46347;BME280;32057;47.830;19.046;2023-03-24T08:37:48;99763.50;;;14.41;70.84
46347;BME280;32057;47.830;19.046;2023-03-24T08:40:16;99757.34;;;14.61;69.03
46347;BME280;32057;47.830;19.046;2023-03-24T08:42:50;99757.28;;;14.73;67.99
46347;BME280;32057;47.830;19.046;2023-03-24T08:45:17;99749.31;;;14.90;67.97
46347;BME280;32057;47.830;19.046;2023-03-24T08:47:46;99753.47;;;15.17;67.23
46347;BME280;32057;47.830;19.046;2023-03-24T08:50:11;99750.69;;;15.42;66.56
46347;BME280;32057;47.830;19.046;2023-03-24T08:52:37;99743.50;;;15.61;65.32
46347;BME280;32057;47.830;19.046;2023-03-24T08:55:03;99746.91;;;15.72;65.33
46347;BME280;32057;47.830;19.046;2023-03-24T08:57:29;99744.28;;;15.70;63.02
46347;BME280;32057;47.830;19.046;2023-03-24T08:59:55;99753.91;;;15.73;64.42
46347;BME280;32057;47.830;19.046;2023-03-24T09:02:20;99758.22;;;15.79;63.74
46347;BME280;32057;47.830;19.046;2023-03-24T09:04:46;99749.28;;;15.95;62.43
46347;BME280;32057;47.830;19.046;2023-03-24T09:07:11;99737.78;;;16.07;65.22
46347;BME280;32057;47.830;19.046;2023-03-24T09:09:37;99729.66;;;16.30;64.65
46347;BME280;32057;47.830;19.046;2023-03-24T09:12:04;99733.84;;;16.43;61.97
46347;BME280;32057;47.830;19.046;2023-03-24T09:14:29;99731.94;;;16.55;60.51
46347;BME280;32057;47.830;19.046;2023-03-24T09:16:55;99725.75;;;16.59;60.60
46347;BME280;32057;47.830;19.046;2023-03-24T09:19:20;99728.19;;;16.72;62.96
46347;BME280;32057;47.830;19.046;2023-03-24T09:21:47;99725.44;;;16.80;61.12
46347;BME280;32057;47.830;19.046;2023-03-24T09:24:13;99724.47;;;16.89;62.97
46347;BME280;32057;47.830;19.046;2023-03-24T09:26:39;99719.94;;;16.99;63.68
46347;BME280;32057;47.830;19.046;2023-03-24T09:29:05;99730.25;;;17.11;60.30
46347;BME280;32057;47.830;19.046;2023-03-24T09:31:31;99717.09;;;17.14;64.92
46347;BME280;32057;47.830;19.046;2023-03-24T09:33:56;99718.63;;;17.26;61.55
46347;BME280;32057;47.830;19.046;2023-03-24T09:36:22;99709.44;;;17.50;66.17
46347;BME280;32057;47.830;19.046;2023-03-24T09:38:47;99716.06;;;17.71;65.98
46347;BME280;32057;47.830;19.046;2023-03-24T09:41:27;99708.22;;;17.69;58.51
46347;BME280;32057;47.830;19.046;2023-03-24T09:44:22;99705.63;;;17.68;57.45
46347;BME280;32057;47.830;19.046;2023-03-24T09:46:59;99702.97;;;17.69;61.41
46347;BME280;32057;47.830;19.046;2023-03-24T09:49:28;99695.78;;;17.78;57.57
46347;BME280;32057;47.830;19.046;2023-03-24T09:52:04;99686.72;;;17.94;55.02
46347;BME280;32057;47.830;19.046;2023-03-24T09:54:47;99689.00;;;18.11;55.73
46347;BME280;32057;47.830;19.046;2023-03-24T09:57:42;99686.19;;;18.19;53.69
46347;BME280;32057;47.830;19.046;2023-03-24T10:00:18;99686.13;;;18.23;52.20
46347;BME280;32057;47.830;19.046;2023-03-24T10:02:44;99681.78;;;18.19;51.51
46347;BME280;32057;47.830;19.046;2023-03-24T10:05:15;99681.69;;;18.25;54.55
46347;BME280;32057;47.830;19.046;2023-03-24T10:07:54;99674.53;;;18.30;52.94
46347;BME280;32057;47.830;19.046;2023-03-24T10:13:19;99669.75;;;18.49;52.90
46347;BME280;32057;47.830;19.046;2023-03-24T10:15:51;99668.63;;;18.60;49.35
46347;BME280;32057;47.830;19.046;2023-03-24T10:18:32;99666.28;;;18.47;49.05
46347;BME280;32057;47.830;19.046;2023-03-24T10:21:19;99661.69;;;18.56;48.41
46347;BME280;32057;47.830;19.046;2023-03-24T10:26:24;99663.28;;;18.63;48.59
46347;BME280;32057;47.830;19.046;2023-03-24T10:29:12;99655.88;;;18.79;51.38
46347;BME280;32057;47.830;19.046;2023-03-24T10:31:49;99653.22;;;18.79;52.47
46347;BME280;32057;47.830;19.046;2023-03-24T10:34:16;99654.09;;;18.81;49.17
46347;BME280;32057;47.830;19.046;2023-03-24T10:36:41;99654.09;;;18.81;49.50
46347;BME280;32057;47.830;19.046;2023-03-24T10:39:14;99650.28;;;18.93;50.06
46347;BME280;32057;47.830;19.046;2023-03-24T10:41:41;99640.41;;;19.01;51.45
46347;BME280;32057;47.830;19.046;2023-03-24T10:44:07;99648.94;;;19.12;50.83
46347;BME280;32057;47.830;19.046;2023-03-24T10:46:37;99645.31;;;19.16;51.20
46347;BME280;32057;47.830;19.046;2023-03-24T10:51:37;99640.81;;;19.20;46.46
46347;BME280;32057;47.830;19.046;2023-03-24T10:54:10;99633.69;;;19.23;51.87
46347;BME280;32057;47.830;19.046;2023-03-24T10:56:41;99629.94;;;19.32;51.58
46347;BME280;32057;47.830;19.046;2023-03-24T11:01:45;99621.06;;;19.35;45.95
46347;BME280;32057;47.830;19.046;2023-03-24T11:04:16;99621.66;;;19.46;47.14
46347;BME280;32057;47.830;19.046;2023-03-24T11:07:01;99616.38;;;19.46;46.93
46347;BME280;32057;47.830;19.046;2023-03-24T11:09:28;99613.88;;;19.41;46.27
46347;BME280;32057;47.830;19.046;2023-03-24T11:11:54;99613.00;;;19.41;49.16
46347;BME280;32057;47.830;19.046;2023-03-24T11:14:23;99612.13;;;19.40;46.65
46347;BME280;32057;47.830;19.046;2023-03-24T11:16:51;99616.22;;;19.52;47.66
46347;BME280;32057;47.830;19.046;2023-03-24T11:19:23;99608.88;;;19.63;47.11
46347;BME280;32057;47.830;19.046;2023-03-24T11:21:50;99610.63;;;19.63;46.83
46347;BME280;32057;47.830;19.046;2023-03-24T11:24:18;99615.19;;;19.58;45.35
46347;BME280;32057;47.830;19.046;2023-03-24T11:26:49;99612.50;;;19.59;46.05
46347;BME280;32057;47.830;19.046;2023-03-24T11:29:19;99598.38;;;19.60;46.59
46347;BME280;32057;47.830;19.046;2023-03-24T11:31:59;99597.94;;;19.77;50.43
46347;BME280;32057;47.830;19.046;2023-03-24T11:34:31;99600.19;;;19.91;48.38
46347;BME280;32057;47.830;19.046;2023-03-24T11:37:04;99589.69;;;19.88;46.50
46347;BME280;32057;47.830;19.046;2023-03-24T11:39:33;99576.63;;;19.83;45.62
46347;BME280;32057;47.830;19.046;2023-03-24T11:44:28;99571.28;;;19.85;45.88
46347;BME280;32057;47.830;19.046;2023-03-24T11:46:57;99563.63;;;19.77;47.48
46347;BME280;32057;47.830;19.046;2023-03-24T11:49:33;99564.94;;;19.92;50.80
46347;BME280;32057;47.830;19.046;2023-03-24T11:52:01;99552.00;;;19.83;45.75
46347;BME280;32057;47.830;19.046;2023-03-24T11:54:35;99543.19;;;19.84;48.50
46347;BME280;32057;47.830;19.046;2023-03-24T11:57:11;99542.84;;;19.95;50.12
46347;BME280;32057;47.830;19.046;2023-03-24T11:59:50;99548.00;;;19.99;47.98
46347;BME280;32057;47.830;19.046;2023-03-24T12:02:23;99542.41;;;20.08;47.53
46347;BME280;32057;47.830;19.046;2023-03-24T12:07:59;99526.94;;;19.96;48.07
46347;BME280;32057;47.830;19.046;2023-03-24T12:13:20;99519.31;;;19.87;50.62
46347;BME280;32057;47.830;19.046;2023-03-24T12:16:27;99522.44;;;20.00;48.40
46347;BME280;32057;47.830;19.046;2023-03-24T12:22:46;99503.22;;;19.95;45.82
46347;BME280;32057;47.830;19.046;2023-03-24T12:37:12;99481.25;;;20.21;48.57
46347;BME280;32057;47.830;19.046;2023-03-24T12:39:33;99483.59;;;20.30;46.40
46347;BME280;32057;47.830;19.046;2023-03-24T12:42:07;99478.88;;;20.40;48.75
46347;BME280;32057;47.830;19.046;2023-03-24T12:47:38;99465.50;;;20.44;46.45
46347;BME280;32057;47.830;19.046;2023-03-24T12:56:03;99448.06;;;20.39;45.93
46347;BME280;32057;47.830;19.046;2023-03-24T12:58:52;99442.78;;;20.39;45.30
46347;BME280;32057;47.830;19.046;2023-03-24T13:01:43;99442.88;;;20.37;45.95
46347;BME280;32057;47.830;19.046;2023-03-24T13:04:24;99433.91;;;20.41;48.40
46347;BME280;32057;47.830;19.046;2023-03-24T13:07:07;99436.44;;;20.44;44.70
46347;BME280;32057;47.830;19.046;2023-03-24T13:12:21;99437.03;;;20.53;45.12
46347;BME280;32057;47.830;19.046;2023-03-24T13:17:29;99410.41;;;20.59;43.83
46347;BME280;32057;47.830;19.046;2023-03-24T13:19:57;99414.75;;;20.61;43.30
46347;BME280;32057;47.830;19.046;2023-03-24T13:22:24;99408.16;;;20.73;42.05
46347;BME280;32057;47.830;19.046;2023-03-24T13:24:53;99409.78;;;20.77;43.39
46347;BME280;32057;47.830;19.046;2023-03-24T13:27:22;99407.81;;;20.82;43.64
46347;BME280;32057;47.830;19.046;2023-03-24T13:32:44;99397.31;;;21.04;42.23
46347;BME280;32057;47.830;19.046;2023-03-24T13:38:05;99393.97;;;20.99;44.49
46347;BME280;32057;47.830;19.046;2023-03-24T13:40:38;99392.47;;;20.92;47.30
46347;BME280;32057;47.830;19.046;2023-03-24T13:43:19;99389.78;;;20.94;42.90
46347;BME280;32057;47.830;19.046;2023-03-24T13:48:32;99382.09;;;21.11;45.46
46347;BME280;32057;47.830;19.046;2023-03-24T13:51:04;99377.34;;;21.19;41.75
46347;BME280;32057;47.830;19.046;2023-03-24T13:53:32;99369.13;;;21.27;42.22
46347;BME280;32057;47.830;19.046;2023-03-24T13:56:01;99377.91;;;21.27;41.39
46347;BME280;32057;47.830;19.046;2023-03-24T14:01:41;99372.72;;;21.24;41.24
46347;BME280;32057;47.830;19.046;2023-03-24T14:26:35;99359.66;;;20.98;39.73
46347;BME280;32057;47.830;19.046;2023-03-24T14:29:01;99345.63;;;20.96;39.88
46347;BME280;32057;47.830;19.046;2023-03-24T14:31:32;99352.84;;;20.91;39.38
46347;BME280;32057;47.830;19.046;2023-03-24T14:34:15;99354.69;;;20.88;39.14
46347;BME280;32057;47.830;19.046;2023-03-24T14:36:44;99355.97;;;20.78;40.03
46347;BME280;32057;47.830;19.046;2023-03-24T14:41:45;99348.22;;;20.74;40.00
46347;BME280;32057;47.830;19.046;2023-03-24T14:44:11;99355.41;;;20.70;40.38
46347;BME280;32057;47.830;19.046;2023-03-24T14:46:46;99349.34;;;20.66;39.58
46347;BME280;32057;47.830;19.046;2023-03-24T14:49:21;99346.88;;;20.62;40.54
46347;BME280;32057;47.830;19.046;2023-03-24T14:54:45;99337.59;;;20.50;40.70
46347;BME280;32057;47.830;19.046;2023-03-24T14:57:22;99335.94;;;20.47;39.65
46347;BME280;32057;47.830;19.046;2023-03-24T15:00:07;99338.72;;;20.43;40.48
46347;BME280;32057;47.830;19.046;2023-03-24T15:02:43;99331.13;;;20.34;42.20
46347;BME280;32057;47.830;19.046;2023-03-24T15:05:19;99337.50;;;20.28;43.39
46347;BME280;32057;47.830;19.046;2023-03-24T15:10:43;99332.16;;;20.29;42.10
46347;BME280;32057;47.830;19.046;2023-03-24T15:13:32;99324.19;;;20.31;41.53
46347;BME280;32057;47.830;19.046;2023-03-24T15:16:00;99325.81;;;20.35;40.78
46347;BME280;32057;47.830;19.046;2023-03-24T15:18:27;99327.50;;;20.36;41.96
46347;BME280;32057;47.830;19.046;2023-03-24T15:20:52;99325.50;;;20.43;40.80
46347;BME280;32057;47.830;19.046;2023-03-24T15:23:23;99325.56;;;20.41;40.34
46347;BME280;32057;47.830;19.046;2023-03-24T15:25:50;99321.31;;;20.37;41.01
46347;BME280;32057;47.830;19.046;2023-03-24T15:28:29;99320.75;;;20.29;41.70
46347;BME280;32057;47.830;19.046;2023-03-24T15:30:56;99313.97;;;20.20;42.58
46347;BME280;32057;47.830;19.046;2023-03-24T15:33:25;99316.03;;;20.12;41.85
46347;BME280;32057;47.830;19.046;2023-03-24T15:35:56;99318.91;;;20.06;41.95
46347;BME280;32057;47.830;19.046;2023-03-24T15:38:32;99310.34;;;19.99;41.59
46347;BME280;32057;47.830;19.046;2023-03-24T15:41:06;99308.81;;;19.92;42.88